sensor_id;sensor_type;location;lat;lon;timestamp;pressure;altitude;pressure_sealevel;temperature;humidity
4745;BME280;2386;42.138;24.746;2023-09-07T05:51:45;100097.50;;;21.64;100.00
4745;BME280;2386;42.138;24.746;2023-09-07T05:56:38;100084.81;;;21.63;100.00
4745;BME280;2386;42.138;24.746;2023-09-07T05:59:04;100088.00;;;21.76;100.00
4745;BME280;2386;42.138;24.746;2023-09-07T06:01:29;100093.41;;;21.86;100.00
4745;BME280;2386;42.138;24.746;2023-09-07T06:03:55;100100.81;;;22.14;100.00
4745;BME280;2386;42.138;24.746;2023-09-07T06:06:20;100105.47;;;22.38;100.00
4745;BME280;2386;42.138;24.746;2023-09-07T06:08:46;100104.44;;;22.52;100.00
4745;BME280;2386;42.138;24.746;2023-09-07T06:11:11;100101.31;;;22.59;100.00
4745;BME280;2386;42.138;24.746;2023-09-07T06:13:37;100093.84;;;22.59;100.00
4745;BME280;2386;42.138;24.746;2023-09-07T06:16:02;100111.84;;;22.76;100.00
4745;BME280;2386;42.138;24.746;2023-09-07T06:18:28;100116.38;;;22.90;100.00
4745;BME280;2386;42.138;24.746;2023-09-07T06:20:54;100100.50;;;22.96;100.00
4745;BME280;2386;42.138;24.746;2023-09-07T06:23:19;100104.59;;;23.31;100.00
4745;BME280;2386;42.138;24.746;2023-09-07T06:25:44;100122.44;;;23.57;100.00
4745;BME280;2386;42.138;24.746;2023-09-07T06:28:13;100114.00;;;23.49;100.00
4745;BME280;2386;42.138;24.746;2023-09-07T06:30:38;100118.97;;;23.66;100.00
4745;BME280;2386;42.138;24.746;2023-09-07T06:33:10;100118.78;;;23.76;100.00
4745;BME280;2386;42.138;24.746;2023-09-07T06:35:38;100120.81;;;23.56;100.00
4745;BME280;2386;42.138;24.746;2023-09-07T06:51:47;100116.53;;;23.91;100.00
4745;BME280;2386;42.138;24.746;2023-09-07T06:54:12;100113.75;;;23.91;100.00
4745;BME280;2386;42.138;24.746;2023-09-07T07:10:39;100120.22;;;24.14;100.00
4745;BME280;2386;42.138;24.746;2023-09-07T07:16:10;100116.94;;;23.99;100.00
4745;BME280;2386;42.138;24.746;2023-09-07T07:18:36;100111.59;;;24.02;100.00
4745;BME280;2386;42.138;24.746;2023-09-07T07:21:02;100096.41;;;24.00;100.00
4745;BME280;2386;42.138;24.746;2023-09-07T07:23:27;100124.75;;;24.10;100.00
4745;BME280;2386;42.138;24.746;2023-09-07T07:25:53;100105.44;;;24.05;100.00
4745;BME280;2386;42.138;24.746;2023-09-07T07:28:18;100121.75;;;24.20;100.00
4745;BME280;2386;42.138;24.746;2023-09-07T07:30:44;100123.03;;;24.28;100.00
4745;BME280;2386;42.138;24.746;2023-09-07T07:33:09;100123.72;;;24.34;100.00
4745;BME280;2386;42.138;24.746;2023-09-07T07:35:37;100127.53;;;24.38;99.66
4745;BME280;2386;42.138;24.746;2023-09-07T07:38:03;100125.88;;;24.37;99.59
4745;BME280;2386;42.138;24.746;2023-09-07T07:40:32;100135.44;;;24.44;100.00
4745;BME280;2386;42.138;24.746;2023-09-07T07:42:57;100130.84;;;24.62;100.00
4745;BME280;2386;42.138;24.746;2023-09-07T07:45:26;100134.09;;;24.78;100.00
4745;BME280;2386;42.138;24.746;2023-09-07T07:47:52;100132.53;;;24.85;100.00
4745;BME280;2386;42.138;24.746;2023-09-07T07:50:18;100133.16;;;24.82;97.96
4745;BME280;2386;42.138;24.746;2023-09-07T07:52:44;100139.78;;;24.73;93.76
4745;BME280;2386;42.138;24.746;2023-09-07T07:55:10;100140.72;;;24.68;94.12
4745;BME280;2386;42.138;24.746;2023-09-07T07:57:35;100142.41;;;24.92;98.17
4745;BME280;2386;42.138;24.746;2023-09-07T08:00:01;100141.56;;;25.05;94.48
4745;BME280;2386;42.138;24.746;2023-09-07T08:02:29;100140.00;;;25.12;96.39
4745;BME280;2386;42.138;24.746;2023-09-07T08:04:54;100140.19;;;25.16;92.84
4745;BME280;2386;42.138;24.746;2023-09-07T08:07:20;100135.63;;;25.20;91.10
4745;BME280;2386;42.138;24.746;2023-09-07T08:09:45;100141.09;;;25.34;94.03
4745;BME280;2386;42.138;24.746;2023-09-07T08:12:11;100147.47;;;25.34;89.28
4745;BME280;2386;42.138;24.746;2023-09-07T08:14:36;100139.41;;;25.46;88.78
4745;BME280;2386;42.138;24.746;2023-09-07T08:17:01;100143.56;;;25.58;85.18
4745;BME280;2386;42.138;24.746;2023-09-07T08:19:29;100138.13;;;25.52;83.49
4745;BME280;2386;42.138;24.746;2023-09-07T08:21:54;100128.47;;;25.72;85.79
4745;BME280;2386;42.138;24.746;2023-09-07T08:24:20;100128.22;;;25.91;84.85
4745;BME280;2386;42.138;24.746;2023-09-07T08:26:45;100129.09;;;26.09;81.63
4745;BME280;2386;42.138;24.746;2023-09-07T08:29:13;100134.50;;;26.14;81.73
4745;BME280;2386;42.138;24.746;2023-09-07T08:31:38;100136.69;;;26.26;80.60
4745;BME280;2386;42.138;24.746;2023-09-07T08:34:07;100131.19;;;26.34;77.81
4745;BME280;2386;42.138;24.746;2023-09-07T08:36:36;100125.13;;;26.41;79.16
4745;BME280;2386;42.138;24.746;2023-09-07T08:39:03;100125.19;;;26.58;83.09
4745;BME280;2386;42.138;24.746;2023-09-07T08:41:36;100119.47;;;26.72;82.86
4745;BME280;2386;42.138;24.746;2023-09-07T08:44:10;100122.03;;;26.42;78.26
4745;BME280;2386;42.138;24.746;2023-09-07T08:46:37;100124.16;;;26.45;77.69
4745;BME280;2386;42.138;24.746;2023-09-07T08:49:02;100121.84;;;26.39;78.00
4745;BME280;2386;42.138;24.746;2023-09-07T08:51:30;100119.22;;;26.34;76.19
4745;BME280;2386;42.138;24.746;2023-09-07T08:53:57;100112.91;;;26.59;79.17
4745;BME280;2386;42.138;24.746;2023-09-07T08:56:23;100107.00;;;26.69;79.99
4745;BME280;2386;42.138;24.746;2023-09-07T08:58:49;100104.88;;;26.83;79.61
4745;BME280;2386;42.138;24.746;2023-09-07T09:01:17;100105.03;;;26.96;78.31
4745;BME280;2386;42.138;24.746;2023-09-07T09:03:43;100111.78;;;27.12;74.36
4745;BME280;2386;42.138;24.746;2023-09-07T09:06:10;100109.31;;;27.28;76.47
4745;BME280;2386;42.138;24.746;2023-09-07T09:08:46;100103.53;;;27.41;74.95
4745;BME280;2386;42.138;24.746;2023-09-07T09:11:14;100108.25;;;27.49;75.36
4745;BME280;2386;42.138;24.746;2023-09-07T09:13:40;100103.91;;;27.14;72.90
4745;BME280;2386;42.138;24.746;2023-09-07T09:16:06;100105.53;;;26.89;72.98
4745;BME280;2386;42.138;24.746;2023-09-07T09:18:37;100107.53;;;26.97;70.74
4745;BME280;2386;42.138;24.746;2023-09-07T09:21:04;100100.16;;;27.10;71.18
4745;BME280;2386;42.138;24.746;2023-09-07T09:23:36;100099.00;;;27.11;74.84
4745;BME280;2386;42.138;24.746;2023-09-07T09:26:03;100095.38;;;26.84;74.94
4745;BME280;2386;42.138;24.746;2023-09-07T09:28:32;100089.50;;;26.69;75.16
4745;BME280;2386;42.138;24.746;2023-09-07T09:30:59;100086.69;;;26.77;77.45
4745;BME280;2386;42.138;24.746;2023-09-07T09:33:25;100082.59;;;26.83;75.85
4745;BME280;2386;42.138;24.746;2023-09-07T09:36:11;100081.28;;;26.81;75.42
4745;BME280;2386;42.138;24.746;2023-09-07T09:38:37;100065.22;;;26.87;74.80
4745;BME280;2386;42.138;24.746;2023-09-07T09:41:21;100067.72;;;26.71;72.31
4745;BME280;2386;42.138;24.746;2023-09-07T09:43:47;100074.91;;;26.63;72.16
4745;BME280;2386;42.138;24.746;2023-09-07T09:46:18;100061.81;;;26.64;71.08
4745;BME280;2386;42.138;24.746;2023-09-07T09:48:44;100063.25;;;26.96;74.46
4745;BME280;2386;42.138;24.746;2023-09-07T09:51:12;100071.97;;;27.03;68.20
4745;BME280;2386;42.138;24.746;2023-09-07T09:53:41;100066.69;;;27.27;67.20
4745;BME280;2386;42.138;24.746;2023-09-07T09:56:07;100046.25;;;27.06;68.36
4745;BME280;2386;42.138;24.746;2023-09-07T09:58:33;100046.53;;;27.30;69.69
4745;BME280;2386;42.138;24.746;2023-09-07T10:01:00;100061.16;;;27.57;69.86
4745;BME280;2386;42.138;24.746;2023-09-07T10:03:29;100055.78;;;27.52;69.10
4745;BME280;2386;42.138;24.746;2023-09-07T10:06:25;100049.72;;;27.49;66.33
4745;BME280;2386;42.138;24.746;2023-09-07T10:09:06;100054.13;;;27.59;66.37
4745;BME280;2386;42.138;24.746;2023-09-07T10:11:50;100037.56;;;27.63;69.35
4745;BME280;2386;42.138;24.746;2023-09-07T10:17:44;100038.88;;;27.57;65.58
4745;BME280;2386;42.138;24.746;2023-09-07T10:20:11;100038.88;;;27.65;69.97
4745;BME280;2386;42.138;24.746;2023-09-07T10:22:37;100045.38;;;27.78;64.82
4745;BME280;2386;42.138;24.746;2023-09-07T10:28:25;100014.88;;;27.73;69.30
4745;BME280;2386;42.138;24.746;2023-09-07T10:31:24;100037.16;;;27.81;66.33
4745;BME280;2386;42.138;24.746;2023-09-07T10:33:50;100022.78;;;27.24;59.08
4745;BME280;2386;42.138;24.746;2023-09-07T13:28:05;99907.88;;;29.91;42.56
4745;BME280;2386;42.138;24.746;2023-09-07T13:30:31;99915.63;;;30.94;41.29
4745;BME280;2386;42.138;24.746;2023-09-07T13:32:56;99897.56;;;31.89;39.91
4745;BME280;2386;42.138;24.746;2023-09-07T13:35:21;99920.53;;;32.91;37.48
4745;BME280;2386;42.138;24.746;2023-09-07T13:37:47;99920.31;;;34.62;36.86
4745;BME280;2386;42.138;24.746;2023-09-07T13:43:34;99918.03;;;35.60;32.17
4745;BME280;2386;42.138;24.746;2023-09-07T13:45:59;99915.03;;;34.94;34.33
4745;BME280;2386;42.138;24.746;2023-09-07T13:48:25;99904.13;;;34.25;35.36
4745;BME280;2386;42.138;24.746;2023-09-07T13:50:50;99923.53;;;33.74;36.19
4745;BME280;2386;42.138;24.746;2023-09-07T13:53:15;99925.50;;;32.79;37.01
4745;BME280;2386;42.138;24.746;2023-09-07T13:55:41;99913.66;;;32.47;39.12
4745;BME280;2386;42.138;24.746;2023-09-07T13:58:07;99906.97;;;32.16;38.90
4745;BME280;2386;42.138;24.746;2023-09-07T14:00:32;99892.56;;;30.85;40.47
4745;BME280;2386;42.138;24.746;2023-09-07T14:02:58;99885.69;;;30.66;41.19
4745;BME280;2386;42.138;24.746;2023-09-07T14:05:23;99879.13;;;30.19;42.58
4745;BME280;2386;42.138;24.746;2023-09-07T14:07:49;99895.72;;;29.99;43.09
4745;BME280;2386;42.138;24.746;2023-09-07T14:10:17;99879.88;;;29.91;43.93
4745;BME280;2386;42.138;24.746;2023-09-07T14:12:42;99888.03;;;29.96;44.67
4745;BME280;2386;42.138;24.746;2023-09-07T14:15:09;99898.47;;;29.71;44.40
4745;BME280;2386;42.138;24.746;2023-09-07T14:17:35;99894.13;;;29.74;44.74
4745;BME280;2386;42.138;24.746;2023-09-07T16:39:46;99888.81;;;26.36;60.28
4745;BME280;2386;42.138;24.746;2023-09-07T16:42:13;99903.69;;;26.48;60.77
4745;BME280;2386;42.138;24.746;2023-09-07T16:44:38;99889.78;;;26.40;60.37
4745;BME280;2386;42.138;24.746;2023-09-07T16:47:04;99894.72;;;26.34;61.73
4745;BME280;2386;42.138;24.746;2023-09-07T16:49:29;99897.28;;;26.31;62.42
4745;BME280;2386;42.138;24.746;2023-09-07T16:51:55;99902.69;;;26.27;62.07
4745;BME280;2386;42.138;24.746;2023-09-07T16:54:20;99900.91;;;26.23;62.15
4745;BME280;2386;42.138;24.746;2023-09-07T16:56:46;99902.69;;;26.27;61.14
4745;BME280;2386;42.138;24.746;2023-09-07T16:59:11;99898.28;;;26.26;60.19
4745;BME280;2386;42.138;24.746;2023-09-07T17:01:36;99909.41;;;26.26;60.60
4745;BME280;2386;42.138;24.746;2023-09-07T17:04:02;99909.41;;;26.17;60.69
4745;BME280;2386;42.138;24.746;2023-09-07T17:06:28;99900.56;;;26.15;60.21
4745;BME280;2386;42.138;24.746;2023-09-07T17:08:53;99905.16;;;26.11;60.35
4745;BME280;2386;42.138;24.746;2023-09-07T17:11:18;99913.34;;;26.16;62.58
4745;BME280;2386;42.138;24.746;2023-09-07T17:13:44;99917.91;;;26.12;60.04
4745;BME280;2386;42.138;24.746;2023-09-07T17:16:09;99916.59;;;26.10;60.97
4745;BME280;2386;42.138;24.746;2023-09-07T17:18:35;99913.34;;;26.16;64.47
4745;BME280;2386;42.138;24.746;2023-09-07T17:21:04;99924.28;;;26.13;62.65
4745;BME280;2386;42.138;24.746;2023-09-07T17:23:30;99918.72;;;26.13;64.46
4745;BME280;2386;42.138;24.746;2023-09-07T17:26:00;99927.56;;;26.15;63.08
4745;BME280;2386;42.138;24.746;2023-09-07T17:28:29;99922.34;;;26.13;64.26
4745;BME280;2386;42.138;24.746;2023-09-07T17:30:54;99937.38;;;26.12;65.11
4745;BME280;2386;42.138;24.746;2023-09-07T17:33:22;99917.28;;;25.98;64.63
4745;BME280;2386;42.138;24.746;2023-09-07T17:35:51;99937.22;;;26.00;64.18
4745;BME280;2386;42.138;24.746;2023-09-07T17:38:20;99938.53;;;26.03;64.80
4745;BME280;2386;42.138;24.746;2023-09-07T17:40:53;99947.84;;;26.07;66.22
4745;BME280;2386;42.138;24.746;2023-09-07T17:43:21;99952.75;;;26.10;65.32
4745;BME280;2386;42.138;24.746;2023-09-07T17:45:47;99956.03;;;26.12;66.98
4745;BME280;2386;42.138;24.746;2023-09-07T17:48:12;99948.00;;;26.02;67.44
4745;BME280;2386;42.138;24.746;2023-09-07T17:50:39;99958.47;;;26.05;67.89
4745;BME280;2386;42.138;24.746;2023-09-07T17:53:05;99957.97;;;26.03;70.12
4745;BME280;2386;42.138;24.746;2023-09-07T17:55:30;99952.94;;;25.96;69.72
4745;BME280;2386;42.138;24.746;2023-09-07T17:57:57;99959.44;;;26.00;70.07
4745;BME280;2386;42.138;24.746;2023-09-07T18:00:22;99952.44;;;25.94;71.46
4745;BME280;2386;42.138;24.746;2023-09-07T18:02:48;99963.22;;;25.96;71.77
4745;BME280;2386;42.138;24.746;2023-09-07T18:05:13;99950.78;;;25.84;71.81
4745;BME280;2386;42.138;24.746;2023-09-07T18:07:44;99968.94;;;25.91;72.70
4745;BME280;2386;42.138;24.746;2023-09-07T18:10:10;99975.97;;;25.88;73.05
4745;BME280;2386;42.138;24.746;2023-09-07T18:12:36;99964.50;;;25.81;74.03
4745;BME280;2386;42.138;24.746;2023-09-07T18:15:01;99965.66;;;25.80;78.74
4745;BME280;2386;42.138;24.746;2023-09-07T18:17:27;99968.59;;;25.75;80.89
4745;BME280;2386;42.138;24.746;2023-09-07T18:19:52;99972.00;;;25.72;80.82
4745;BME280;2386;42.138;24.746;2023-09-07T18:22:17;99970.53;;;25.66;83.14
4745;BME280;2386;42.138;24.746;2023-09-07T18:24:43;99983.72;;;25.60;83.76
4745;BME280;2386;42.138;24.746;2023-09-07T18:27:08;99976.34;;;25.55;84.90
4745;BME280;2386;42.138;24.746;2023-09-07T18:29:33;99991.53;;;25.58;82.38
4745;BME280;2386;42.138;24.746;2023-09-07T18:32:00;99991.38;;;25.54;84.24
4745;BME280;2386;42.138;24.746;2023-09-07T18:34:25;99983.81;;;25.46;84.86
4745;BME280;2386;42.138;24.746;2023-09-07T18:36:51;99991.00;;;25.47;82.42
4745;BME280;2386;42.138;24.746;2023-09-07T18:39:16;99995.56;;;25.43;83.55
4745;BME280;2386;42.138;24.746;2023-09-07T18:41:42;99988.03;;;25.35;81.98
4745;BME280;2386;42.138;24.746;2023-09-07T18:44:07;100004.72;;;25.44;81.03
4745;BME280;2386;42.138;24.746;2023-09-07T18:46:32;100003.72;;;25.40;79.82
4745;BME280;2386;42.138;24.746;2023-09-07T18:48:58;100004.03;;;25.38;80.04
4745;BME280;2386;42.138;24.746;2023-09-07T18:51:24;100016.78;;;25.39;79.89
4745;BME280;2386;42.138;24.746;2023-09-07T18:53:49;100002.22;;;25.34;79.47
4745;BME280;2386;42.138;24.746;2023-09-07T18:56:14;100005.81;;;25.34;79.49
4745;BME280;2386;42.138;24.746;2023-09-07T18:58:40;100016.78;;;25.39;80.61
4745;BME280;2386;42.138;24.746;2023-09-07T19:01:16;100014.16;;;25.34;81.87
4745;BME280;2386;42.138;24.746;2023-09-07T19:03:44;100017.28;;;25.41;82.70
4745;BME280;2386;42.138;24.746;2023-09-07T19:06:10;100014.16;;;25.34;83.45
4745;BME280;2386;42.138;24.746;2023-09-07T19:08:35;100014.34;;;25.38;82.41
4745;BME280;2386;42.138;24.746;2023-09-07T19:11:01;100020.72;;;25.38;82.14
4745;BME280;2386;42.138;24.746;2023-09-07T19:13:26;100034.09;;;25.36;81.69
4745;BME280;2386;42.138;24.746;2023-09-07T19:15:51;100036.88;;;25.36;81.61
4745;BME280;2386;42.138;24.746;2023-09-07T19:18:17;100032.97;;;25.37;82.11
4745;BME280;2386;42.138;24.746;2023-09-07T19:20:42;100042.63;;;25.40;81.01
4745;BME280;2386;42.138;24.746;2023-09-07T19:23:08;100034.41;;;25.35;80.37
4745;BME280;2386;42.138;24.746;2023-09-07T19:25:33;100037.38;;;25.38;82.87
4745;BME280;2386;42.138;24.746;2023-09-07T19:27:59;100042.94;;;25.38;86.11
4745;BME280;2386;42.138;24.746;2023-09-07T19:30:25;100036.38;;;25.34;87.71
4745;BME280;2386;42.138;24.746;2023-09-07T19:32:53;100050.06;;;25.22;88.78
4745;BME280;2386;42.138;24.746;2023-09-07T19:35:18;100060.34;;;25.21;89.00
4745;BME280;2386;42.138;24.746;2023-09-07T19:37:44;100054.72;;;25.13;90.13
4745;BME280;2386;42.138;24.746;2023-09-07T19:40:09;100054.69;;;25.04;98.10
4745;BME280;2386;42.138;24.746;2023-09-07T19:42:35;100062.66;;;24.83;100.00
4745;BME280;2386;42.138;24.746;2023-09-07T19:45:01;100053.06;;;24.67;100.00
4745;BME280;2386;42.138;24.746;2023-09-07T19:47:30;100050.50;;;24.57;100.00
4745;BME280;2386;42.138;24.746;2023-09-07T19:49:55;100062.44;;;24.57;100.00
4745;BME280;2386;42.138;24.746;2023-09-07T19:52:20;100063.38;;;24.53;100.00
4745;BME280;2386;42.138;24.746;2023-09-07T19:54:47;100059.31;;;24.50;98.23
4745;BME280;2386;42.138;24.746;2023-09-07T19:57:13;100053.56;;;24.47;100.00
4745;BME280;2386;42.138;24.746;2023-09-07T19:59:39;100058.78;;;24.48;100.00
4745;BME280;2386;42.138;24.746;2023-09-07T20:02:05;100051.91;;;24.46;100.00
4745;BME280;2386;42.138;24.746;2023-09-07T20:04:32;100060.75;;;24.48;92.39
4745;BME280;2386;42.138;24.746;2023-09-07T20:06:57;100063.69;;;24.51;92.08
4745;BME280;2386;42.138;24.746;2023-09-07T20:09:23;100062.56;;;24.52;94.07
4745;BME280;2386;42.138;24.746;2023-09-07T20:11:50;100065.00;;;24.54;89.42
4745;BME280;2386;42.138;24.746;2023-09-07T20:14:16;100069.94;;;24.57;90.77
4745;BME280;2386;42.138;24.746;2023-09-07T20:16:43;100067.16;;;24.57;89.95
4745;BME280;2386;42.138;24.746;2023-09-07T20:19:08;100070.44;;;24.59;87.83
4745;BME280;2386;42.138;24.746;2023-09-07T20:21:34;100077.81;;;24.64;89.42
4745;BME280;2386;42.138;24.746;2023-09-07T20:23:59;100069.63;;;24.58;87.64
4745;BME280;2386;42.138;24.746;2023-09-07T20:26:25;100074.84;;;24.60;89.71
4745;BME280;2386;42.138;24.746;2023-09-07T20:28:50;100073.34;;;24.54;90.01
4745;BME280;2386;42.138;24.746;2023-09-07T20:31:18;100070.25;;;24.55;89.51
4745;BME280;2386;42.138;24.746;2023-09-07T20:33:44;100072.72;;;24.57;89.27
4745;BME280;2386;42.138;24.746;2023-09-07T20:36:09;100076.63;;;24.56;90.24
4745;BME280;2386;42.138;24.746;2023-09-07T20:38:35;100068.59;;;24.54;91.11
4745;BME280;2386;42.138;24.746;2023-09-07T20:41:00;100079.38;;;24.56;91.05
4745;BME280;2386;42.138;24.746;2023-09-07T20:43:27;100074.34;;;24.58;90.29
4745;BME280;2386;42.138;24.746;2023-09-07T20:45:53;100080.00;;;24.53;91.31
4745;BME280;2386;42.138;24.746;2023-09-07T20:48:20;100081.53;;;24.59;91.93
4745;BME280;2386;42.138;24.746;2023-09-07T20:50:45;100079.19;;;24.52;90.51
4745;BME280;2386;42.138;24.746;2023-09-07T20:53:11;100087.06;;;24.37;94.25
4745;BME280;2386;42.138;24.746;2023-09-07T20:55:37;100082.22;;;24.42;95.02
4745;BME280;2386;42.138;24.746;2023-09-07T20:58:03;100088.63;;;24.29;95.61
4745;BME280;2386;42.138;24.746;2023-09-07T21:00:28;100083.88;;;24.30;97.46
4745;BME280;2386;42.138;24.746;2023-09-07T21:02:54;100083.78;;;24.35;97.32
4745;BME280;2386;42.138;24.746;2023-09-07T21:05:20;100082.03;;;24.39;98.41
4745;BME280;2386;42.138;24.746;2023-09-07T21:07:45;100087.47;;;24.44;99.38
4745;BME280;2386;42.138;24.746;2023-09-07T21:10:10;100086.84;;;24.47;99.75
4745;BME280;2386;42.138;24.746;2023-09-07T21:12:37;100082.44;;;24.32;100.00
4745;BME280;2386;42.138;24.746;2023-09-07T21:15:03;100076.91;;;24.32;100.00
4745;BME280;2386;42.138;24.746;2023-09-07T21:17:31;100081.50;;;24.37;100.00
4745;BME280;2386;42.138;24.746;2023-09-07T21:19:56;100065.59;;;24.29;100.00
4745;BME280;2386;42.138;24.746;2023-09-07T21:22:24;100072.88;;;24.24;100.00
4745;BME280;2386;42.138;24.746;2023-09-07T21:24:50;100052.66;;;24.24;100.00
4745;BME280;2386;42.138;24.746;2023-09-07T21:27:15;100062.91;;;24.23;100.00
4745;BME280;2386;42.138;24.746;2023-09-07T21:29:41;100051.22;;;24.13;100.00
4745;BME280;2386;42.138;24.746;2023-09-07T21:32:06;100067.34;;;24.24;100.00
4745;BME280;2386;42.138;24.746;2023-09-07T21:34:31;100049.38;;;24.08;100.00
4745;BME280;2386;42.138;24.746;2023-09-07T21:36:57;100056.47;;;24.14;100.00
4745;BME280;2386;42.138;24.746;2023-09-07T21:39:24;100050.91;;;24.14;100.00
4745;BME280;2386;42.138;24.746;2023-09-07T21:41:51;100044.25;;;24.15;100.00
4745;BME280;2386;42.138;24.746;2023-09-07T21:44:18;100051.94;;;24.18;100.00
4745;BME280;2386;42.138;24.746;2023-09-07T21:46:44;100042.09;;;24.12;100.00
4745;BME280;2386;42.138;24.746;2023-09-07T21:49:10;100036.03;;;24.10;100.00
4745;BME280;2386;42.138;24.746;2023-09-07T21:51:37;100036.44;;;24.17;100.00
4745;BME280;2386;42.138;24.746;2023-09-07T21:54:02;100045.38;;;24.14;100.00
4745;BME280;2386;42.138;24.746;2023-09-07T21:56:28;100039.50;;;24.16;100.00
4745;BME280;2386;42.138;24.746;2023-09-07T21:58:54;100038.41;;;24.03;100.00
4745;BME280;2386;42.138;24.746;2023-09-07T22:01:20;100036.25;;;24.00;100.00
4745;BME280;2386;42.138;24.746;2023-09-07T22:03:45;100037.47;;;23.94;100.00
4745;BME280;2386;42.138;24.746;2023-09-07T22:06:10;100045.50;;;23.82;100.00
4745;BME280;2386;42.138;24.746;2023-09-07T22:08:36;100047.34;;;23.86;100.00
4745;BME280;2386;42.138;24.746;2023-09-07T22:11:02;100046.63;;;23.95;100.00
4745;BME280;2386;42.138;24.746;2023-09-07T22:13:28;100042.91;;;23.99;100.00
4745;BME280;2386;42.138;24.746;2023-09-07T22:15:54;100041.78;;;24.00;100.00
4745;BME280;2386;42.138;24.746;2023-09-07T22:18:19;100051.75;;;24.01;100.00
4745;BME280;2386;42.138;24.746;2023-09-07T22:20:44;100049.78;;;24.02;100.00
4745;BME280;2386;42.138;24.746;2023-09-07T22:23:10;100050.94;;;24.01;100.00
4745;BME280;2386;42.138;24.746;2023-09-07T22:25:35;100051.53;;;23.98;100.00
4745;BME280;2386;42.138;24.746;2023-09-07T22:28:01;100057.19;;;24.06;100.00
4745;BME280;2386;42.138;24.746;2023-09-07T22:30:27;100050.63;;;24.02;100.00
4745;BME280;2386;42.138;24.746;2023-09-07T22:32:53;100055.97;;;23.99;100.00
4745;BME280;2386;42.138;24.746;2023-09-07T22:35:18;100052.16;;;24.08;100.00
4745;BME280;2386;42.138;24.746;2023-09-07T22:37:44;100052.34;;;24.12;100.00
4745;BME280;2386;42.138;24.746;2023-09-07T22:40:10;100035.94;;;24.02;100.00
4745;BME280;2386;42.138;24.746;2023-09-07T22:42:44;100032.97;;;23.98;100.00
4745;BME280;2386;42.138;24.746;2023-09-07T22:45:11;100039.75;;;23.92;96.56
4745;BME280;2386;42.138;24.746;2023-09-07T22:47:37;100034.66;;;23.72;90.31
4745;BME280;2386;42.138;24.746;2023-09-07T22:50:04;100050.41;;;23.85;86.64
4745;BME280;2386;42.138;24.746;2023-09-07T22:52:30;100036.66;;;23.80;86.99
4745;BME280;2386;42.138;24.746;2023-09-07T22:54:56;100038.00;;;23.82;84.29
4745;BME280;2386;42.138;24.746;2023-09-07T22:57:22;100051.03;;;23.82;81.89
4745;BME280;2386;42.138;24.746;2023-09-07T22:59:47;100041.69;;;23.91;81.65
4745;BME280;2386;42.138;24.746;2023-09-07T23:02:13;100029.91;;;23.86;81.11
4745;BME280;2386;42.138;24.746;2023-09-07T23:04:38;100025.16;;;23.86;79.68
4745;BME280;2386;42.138;24.746;2023-09-07T23:07:04;100036.47;;;23.90;79.37
4745;BME280;2386;42.138;24.746;2023-09-07T23:09:29;100030.72;;;23.86;79.79
4745;BME280;2386;42.138;24.746;2023-09-07T23:11:57;100023.13;;;23.78;78.29
4745;BME280;2386;42.138;24.746;2023-09-07T23:14:23;100048.56;;;23.94;79.40
4745;BME280;2386;42.138;24.746;2023-09-07T23:16:48;100034.53;;;23.77;78.53
4745;BME280;2386;42.138;24.746;2023-09-07T23:19:17;100020.88;;;23.80;76.74
4745;BME280;2386;42.138;24.746;2023-09-07T23:21:43;100035.44;;;23.86;76.48
4745;BME280;2386;42.138;24.746;2023-09-07T23:24:12;100050.22;;;23.95;77.83
4745;BME280;2386;42.138;24.746;2023-09-07T23:26:38;100041.91;;;23.95;75.22
4745;BME280;2386;42.138;24.746;2023-09-07T23:29:31;100031.03;;;23.85;76.33
4745;BME280;2386;42.138;24.746;2023-09-07T23:31:57;100019.06;;;23.76;76.57
4745;BME280;2386;42.138;24.746;2023-09-07T23:34:23;100031.78;;;23.77;76.17
4745;BME280;2386;42.138;24.746;2023-09-07T23:36:55;100026.41;;;23.80;73.06
4745;BME280;2386;42.138;24.746;2023-09-07T23:39:23;100031.78;;;23.77;73.53
4745;BME280;2386;42.138;24.746;2023-09-07T23:41:50;100026.53;;;23.75;74.10
4745;BME280;2386;42.138;24.746;2023-09-07T23:44:17;100050.31;;;23.90;73.27
4745;BME280;2386;42.138;24.746;2023-09-07T23:46:42;100015.94;;;23.77;73.57
4745;BME280;2386;42.138;24.746;2023-09-07T23:49:12;100037.69;;;23.84;72.70
4745;BME280;2386;42.138;24.746;2023-09-07T23:51:39;100030.13;;;23.76;74.64
4745;BME280;2386;42.138;24.746;2023-09-07T23:54:05;100011.47;;;23.68;74.16
4745;BME280;2386;42.138;24.746;2023-09-07T23:56:30;100015.34;;;23.67;73.49
4745;BME280;2386;42.138;24.746;2023-09-07T23:58:56;100016.59;;;23.74;73.67
